sensor_id;sensor_type;location;lat;lon;timestamp;P1;durP1;ratioP1;P2;durP2;ratioP2
23539;SDS011;11947;50.810;4.394;2023-01-25T00:00:15;82.22;;;35.25;;
23539;SDS011;11947;50.810;4.394;2023-01-25T00:02:41;82.07;;;35.05;;
23539;SDS011;11947;50.810;4.394;2023-01-25T00:05:07;79.15;;;34.47;;
23539;SDS011;11947;50.810;4.394;2023-01-25T00:07:33;86.53;;;36.80;;
23539;SDS011;11947;50.810;4.394;2023-01-25T00:09:58;79.72;;;34.80;;
23539;SDS011;11947;50.810;4.394;2023-01-25T00:12:24;76.78;;;34.05;;
23539;SDS011;11947;50.810;4.394;2023-01-25T00:14:49;86.25;;;36.40;;
23539;SDS011;11947;50.810;4.394;2023-01-25T00:17:15;82.75;;;34.55;;
23539;SDS011;11947;50.810;4.394;2023-01-25T00:19:40;81.85;;;34.88;;
23539;SDS011;11947;50.810;4.394;2023-01-25T00:22:06;78.32;;;34.47;;
23539;SDS011;11947;50.810;4.394;2023-01-25T00:24:31;80.50;;;35.42;;
23539;SDS011;11947;50.810;4.394;2023-01-25T00:26:57;84.05;;;37.50;;
23539;SDS011;11947;50.810;4.394;2023-01-25T00:29:22;86.90;;;36.38;;
23539;SDS011;11947;50.810;4.394;2023-01-25T00:31:49;86.82;;;37.60;;
23539;SDS011;11947;50.810;4.394;2023-01-25T00:36:54;87.10;;;36.33;;
23539;SDS011;11947;50.810;4.394;2023-01-25T00:39:21;79.15;;;35.15;;
23539;SDS011;11947;50.810;4.394;2023-01-25T00:41:49;73.30;;;32.65;;
23539;SDS011;11947;50.810;4.394;2023-01-25T00:44:14;77.78;;;34.58;;
23539;SDS011;11947;50.810;4.394;2023-01-25T00:46:42;76.47;;;35.72;;
23539;SDS011;11947;50.810;4.394;2023-01-25T00:49:21;140.07;;;36.83;;
23539;SDS011;11947;50.810;4.394;2023-01-25T00:51:49;83.88;;;36.25;;
23539;SDS011;11947;50.810;4.394;2023-01-25T00:54:16;81.38;;;34.08;;
23539;SDS011;11947;50.810;4.394;2023-01-25T00:56:42;78.88;;;34.50;;
23539;SDS011;11947;50.810;4.394;2023-01-25T00:59:08;83.60;;;35.53;;
23539;SDS011;11947;50.810;4.394;2023-01-25T01:01:35;82.85;;;34.90;;
23539;SDS011;11947;50.810;4.394;2023-01-25T01:04:00;80.70;;;34.33;;
23539;SDS011;11947;50.810;4.394;2023-01-25T01:06:26;75.25;;;34.38;;
23539;SDS011;11947;50.810;4.394;2023-01-25T01:08:52;83.60;;;35.70;;
23539;SDS011;11947;50.810;4.394;2023-01-25T01:11:17;78.53;;;34.45;;
23539;SDS011;11947;50.810;4.394;2023-01-25T01:13:43;77.50;;;34.28;;
23539;SDS011;11947;50.810;4.394;2023-01-25T01:16:09;78.72;;;32.60;;
23539;SDS011;11947;50.810;4.394;2023-01-25T01:18:41;87.60;;;34.47;;
23539;SDS011;11947;50.810;4.394;2023-01-25T01:21:08;71.05;;;32.38;;
23539;SDS011;11947;50.810;4.394;2023-01-25T01:23:35;76.05;;;33.22;;
23539;SDS011;11947;50.810;4.394;2023-01-25T01:26:02;81.07;;;33.80;;
23539;SDS011;11947;50.810;4.394;2023-01-25T01:28:30;79.05;;;34.22;;
23539;SDS011;11947;50.810;4.394;2023-01-25T01:31:03;77.60;;;33.88;;
23539;SDS011;11947;50.810;4.394;2023-01-25T01:33:31;77.28;;;32.40;;
23539;SDS011;11947;50.810;4.394;2023-01-25T01:35:56;84.25;;;35.80;;
23539;SDS011;11947;50.810;4.394;2023-01-25T01:38:22;79.72;;;34.65;;
23539;SDS011;11947;50.810;4.394;2023-01-25T09:21:32;92.80;;;36.80;;
23539;SDS011;11947;50.810;4.394;2023-01-25T09:24:01;104.63;;;39.88;;
23539;SDS011;11947;50.810;4.394;2023-01-25T09:26:35;97.85;;;39.90;;
23539;SDS011;11947;50.810;4.394;2023-01-25T09:29:07;106.38;;;41.88;;
23539;SDS011;11947;50.810;4.394;2023-01-25T09:31:37;106.50;;;40.30;;
23539;SDS011;11947;50.810;4.394;2023-01-25T09:34:04;103.10;;;39.97;;
23539;SDS011;11947;50.810;4.394;2023-01-25T09:36:32;102.00;;;40.30;;
23539;SDS011;11947;50.810;4.394;2023-01-25T09:39:36;108.22;;;40.15;;
23539;SDS011;11947;50.810;4.394;2023-01-25T09:48:41;106.63;;;40.40;;
23539;SDS011;11947;50.810;4.394;2023-01-25T09:54:03;98.07;;;38.88;;
23539;SDS011;11947;50.810;4.394;2023-01-25T09:57:14;108.93;;;41.42;;
23539;SDS011;11947;50.810;4.394;2023-01-25T10:00:04;104.28;;;41.97;;
23539;SDS011;11947;50.810;4.394;2023-01-25T10:03:00;98.20;;;39.95;;
23539;SDS011;11947;50.810;4.394;2023-01-25T10:05:52;121.57;;;42.60;;
23539;SDS011;11947;50.810;4.394;2023-01-25T10:08:27;107.15;;;42.33;;
23539;SDS011;11947;50.810;4.394;2023-01-25T10:11:15;110.93;;;40.85;;
23539;SDS011;11947;50.810;4.394;2023-01-25T10:14:30;106.30;;;41.78;;
23539;SDS011;11947;50.810;4.394;2023-01-25T10:26:04;111.95;;;42.42;;
23539;SDS011;11947;50.810;4.394;2023-01-25T10:29:18;108.68;;;42.33;;
23539;SDS011;11947;50.810;4.394;2023-01-25T10:31:50;112.47;;;43.17;;
23539;SDS011;11947;50.810;4.394;2023-01-25T10:34:39;109.72;;;43.95;;
23539;SDS011;11947;50.810;4.394;2023-01-25T10:43:56;110.28;;;43.47;;
23539;SDS011;11947;50.810;4.394;2023-01-25T10:46:43;113.32;;;43.47;;
23539;SDS011;11947;50.810;4.394;2023-01-25T11:01:58;124.22;;;45.05;;
23539;SDS011;11947;50.810;4.394;2023-01-25T11:07:43;117.38;;;45.17;;
23539;SDS011;11947;50.810;4.394;2023-01-25T11:10:52;119.32;;;44.33;;
23539;SDS011;11947;50.810;4.394;2023-01-25T11:18:51;112.65;;;42.67;;
23539;SDS011;11947;50.810;4.394;2023-01-25T11:21:57;120.95;;;43.28;;
23539;SDS011;11947;50.810;4.394;2023-01-25T11:24:34;113.55;;;43.22;;
23539;SDS011;11947;50.810;4.394;2023-01-25T11:27:26;109.47;;;45.00;;
23539;SDS011;11947;50.810;4.394;2023-01-25T11:32:29;113.43;;;43.58;;
23539;SDS011;11947;50.810;4.394;2023-01-25T11:34:58;114.05;;;44.47;;
23539;SDS011;11947;50.810;4.394;2023-01-25T11:51:05;277.33;;;102.97;;
23539;SDS011;11947;50.810;4.394;2023-01-25T12:12:15;142.90;;;54.30;;
23539;SDS011;11947;50.810;4.394;2023-01-25T12:15:05;117.90;;;46.47;;
23539;SDS011;11947;50.810;4.394;2023-01-25T12:20:58;114.82;;;44.67;;
23539;SDS011;11947;50.810;4.394;2023-01-25T12:23:43;122.97;;;47.17;;
23539;SDS011;11947;50.810;4.394;2023-01-25T12:26:28;150.27;;;54.95;;
23539;SDS011;11947;50.810;4.394;2023-01-25T12:29:03;127.55;;;47.00;;
23539;SDS011;11947;50.810;4.394;2023-01-25T12:34:09;124.55;;;47.72;;
23539;SDS011;11947;50.810;4.394;2023-01-25T12:36:44;130.80;;;50.15;;
23539;SDS011;11947;50.810;4.394;2023-01-25T12:39:12;132.82;;;49.15;;
23539;SDS011;11947;50.810;4.394;2023-01-25T12:47:13;128.27;;;49.63;;
23539;SDS011;11947;50.810;4.394;2023-01-25T12:49:57;119.72;;;46.83;;
23539;SDS011;11947;50.810;4.394;2023-01-25T12:52:38;129.80;;;48.90;;
23539;SDS011;11947;50.810;4.394;2023-01-25T12:55:13;129.48;;;49.67;;
23539;SDS011;11947;50.810;4.394;2023-01-25T13:08:41;122.75;;;48.17;;
23539;SDS011;11947;50.810;4.394;2023-01-25T13:11:32;124.68;;;45.65;;
23539;SDS011;11947;50.810;4.394;2023-01-25T13:16:43;123.63;;;46.42;;
23539;SDS011;11947;50.810;4.394;2023-01-25T13:19:57;137.27;;;47.05;;
23539;SDS011;11947;50.810;4.394;2023-01-25T13:22:11;125.47;;;47.70;;
23539;SDS011;11947;50.810;4.394;2023-01-25T13:27:31;130.27;;;49.22;;
23539;SDS011;11947;50.810;4.394;2023-01-25T13:33:00;120.55;;;46.90;;
23539;SDS011;11947;50.810;4.394;2023-01-25T13:35:29;124.85;;;45.67;;
23539;SDS011;11947;50.810;4.394;2023-01-25T13:37:57;117.93;;;44.58;;
23539;SDS011;11947;50.810;4.394;2023-01-25T13:40:27;123.15;;;46.85;;
23539;SDS011;11947;50.810;4.394;2023-01-25T13:45:29;121.75;;;45.90;;
23539;SDS011;11947;50.810;4.394;2023-01-25T13:48:00;122.60;;;45.53;;
23539;SDS011;11947;50.810;4.394;2023-01-25T13:50:33;116.60;;;44.90;;
23539;SDS011;11947;50.810;4.394;2023-01-25T13:55:40;114.88;;;43.38;;
23539;SDS011;11947;50.810;4.394;2023-01-25T14:00:53;113.32;;;42.80;;
23539;SDS011;11947;50.810;4.394;2023-01-25T14:03:21;129.00;;;50.85;;
23539;SDS011;11947;50.810;4.394;2023-01-25T14:05:52;124.63;;;47.60;;
23539;SDS011;11947;50.810;4.394;2023-01-25T14:08:20;107.20;;;44.13;;
23539;SDS011;11947;50.810;4.394;2023-01-25T14:10:46;114.75;;;45.05;;
23539;SDS011;11947;50.810;4.394;2023-01-25T14:13:14;115.15;;;43.83;;
23539;SDS011;11947;50.810;4.394;2023-01-25T14:15:41;109.90;;;43.83;;
23539;SDS011;11947;50.810;4.394;2023-01-25T14:18:17;117.32;;;44.10;;
23539;SDS011;11947;50.810;4.394;2023-01-25T14:20:44;142.07;;;43.17;;
23539;SDS011;11947;50.810;4.394;2023-01-25T14:23:29;121.32;;;44.55;;
23539;SDS011;11947;50.810;4.394;2023-01-25T14:25:57;111.38;;;42.15;;
23539;SDS011;11947;50.810;4.394;2023-01-25T14:28:26;108.22;;;41.55;;
23539;SDS011;11947;50.810;4.394;2023-01-25T14:30:54;109.47;;;43.60;;
23539;SDS011;11947;50.810;4.394;2023-01-25T14:33:31;115.57;;;44.65;;
23539;SDS011;11947;50.810;4.394;2023-01-25T14:36:06;121.22;;;44.10;;
23539;SDS011;11947;50.810;4.394;2023-01-25T14:44:10;119.93;;;43.55;;
23539;SDS011;11947;50.810;4.394;2023-01-25T14:46:37;115.55;;;43.05;;
23539;SDS011;11947;50.810;4.394;2023-01-25T14:49:25;113.15;;;43.78;;
23539;SDS011;11947;50.810;4.394;2023-01-25T14:54:36;110.38;;;42.13;;
23539;SDS011;11947;50.810;4.394;2023-01-25T14:57:16;119.45;;;44.10;;
23539;SDS011;11947;50.810;4.394;2023-01-25T15:00:03;112.70;;;42.72;;
23539;SDS011;11947;50.810;4.394;2023-01-25T15:02:35;294.70;;;101.00;;
23539;SDS011;11947;50.810;4.394;2023-01-25T15:05:19;483.83;;;166.00;;
23539;SDS011;11947;50.810;4.394;2023-01-25T15:08:11;287.92;;;103.85;;
23539;SDS011;11947;50.810;4.394;2023-01-25T15:10:49;123.65;;;44.75;;
23539;SDS011;11947;50.810;4.394;2023-01-25T15:13:21;122.95;;;45.90;;
23539;SDS011;11947;50.810;4.394;2023-01-25T15:15:55;115.70;;;43.35;;
23539;SDS011;11947;50.810;4.394;2023-01-25T15:21:17;124.68;;;42.17;;
23539;SDS011;11947;50.810;4.394;2023-01-25T15:23:50;124.32;;;44.13;;
23539;SDS011;11947;50.810;4.394;2023-01-25T15:26:17;118.35;;;44.53;;
23539;SDS011;11947;50.810;4.394;2023-01-25T15:28:43;117.95;;;43.15;;
23539;SDS011;11947;50.810;4.394;2023-01-25T15:31:16;150.43;;;54.05;;
23539;SDS011;11947;50.810;4.394;2023-01-25T15:33:48;115.03;;;42.42;;
23539;SDS011;11947;50.810;4.394;2023-01-25T15:36:14;136.43;;;46.53;;
23539;SDS011;11947;50.810;4.394;2023-01-25T15:38:41;138.23;;;46.80;;
23539;SDS011;11947;50.810;4.394;2023-01-25T15:41:07;134.23;;;45.33;;
23539;SDS011;11947;50.810;4.394;2023-01-25T15:43:33;126.60;;;46.47;;
23539;SDS011;11947;50.810;4.394;2023-01-25T15:45:59;130.40;;;45.50;;
23539;SDS011;11947;50.810;4.394;2023-01-25T15:48:27;129.25;;;45.47;;
23539;SDS011;11947;50.810;4.394;2023-01-25T15:50:55;136.32;;;46.13;;
23539;SDS011;11947;50.810;4.394;2023-01-25T15:53:21;130.35;;;44.80;;
23539;SDS011;11947;50.810;4.394;2023-01-25T15:55:48;133.25;;;44.72;;
23539;SDS011;11947;50.810;4.394;2023-01-25T15:58:32;140.20;;;45.92;;
23539;SDS011;11947;50.810;4.394;2023-01-25T16:00:59;131.80;;;44.30;;
23539;SDS011;11947;50.810;4.394;2023-01-25T16:03:25;134.90;;;46.08;;
23539;SDS011;11947;50.810;4.394;2023-01-25T16:05:57;126.75;;;43.60;;
23539;SDS011;11947;50.810;4.394;2023-01-25T16:08:42;123.97;;;43.67;;
23539;SDS011;11947;50.810;4.394;2023-01-25T16:11:08;130.82;;;45.03;;
23539;SDS011;11947;50.810;4.394;2023-01-25T16:13:34;134.45;;;44.38;;
23539;SDS011;11947;50.810;4.394;2023-01-25T16:15:59;142.52;;;46.55;;
23539;SDS011;11947;50.810;4.394;2023-01-25T16:18:25;138.43;;;46.20;;
23539;SDS011;11947;50.810;4.394;2023-01-25T16:20:50;130.20;;;45.17;;
23539;SDS011;11947;50.810;4.394;2023-01-25T16:23:16;139.38;;;45.33;;
23539;SDS011;11947;50.810;4.394;2023-01-25T16:25:41;131.85;;;46.05;;
23539;SDS011;11947;50.810;4.394;2023-01-25T16:28:14;134.95;;;46.03;;
23539;SDS011;11947;50.810;4.394;2023-01-25T16:30:45;132.15;;;45.30;;
23539;SDS011;11947;50.810;4.394;2023-01-25T16:33:11;136.05;;;46.83;;
23539;SDS011;11947;50.810;4.394;2023-01-25T16:35:36;148.98;;;45.65;;
23539;SDS011;11947;50.810;4.394;2023-01-25T16:38:02;142.60;;;47.08;;
23539;SDS011;11947;50.810;4.394;2023-01-25T16:40:29;137.82;;;45.55;;
23539;SDS011;11947;50.810;4.394;2023-01-25T16:43:00;145.95;;;46.15;;
23539;SDS011;11947;50.810;4.394;2023-01-25T16:45:26;145.73;;;45.25;;
23539;SDS011;11947;50.810;4.394;2023-01-25T16:47:52;135.65;;;44.75;;
23539;SDS011;11947;50.810;4.394;2023-01-25T16:50:19;134.25;;;44.13;;
23539;SDS011;11947;50.810;4.394;2023-01-25T16:52:46;141.40;;;44.97;;
23539;SDS011;11947;50.810;4.394;2023-01-25T16:55:15;138.85;;;44.45;;
23539;SDS011;11947;50.810;4.394;2023-01-25T16:57:43;140.60;;;44.90;;
23539;SDS011;11947;50.810;4.394;2023-01-25T17:00:12;155.63;;;47.95;;
23539;SDS011;11947;50.810;4.394;2023-01-25T17:02:44;151.77;;;48.23;;
23539;SDS011;11947;50.810;4.394;2023-01-25T17:05:10;144.20;;;45.55;;
23539;SDS011;11947;50.810;4.394;2023-01-25T17:07:36;145.20;;;48.03;;
23539;SDS011;11947;50.810;4.394;2023-01-25T17:10:01;152.15;;;46.03;;
23539;SDS011;11947;50.810;4.394;2023-01-25T17:12:30;154.80;;;46.67;;
23539;SDS011;11947;50.810;4.394;2023-01-25T17:14:56;141.50;;;45.08;;
23539;SDS011;11947;50.810;4.394;2023-01-25T17:17:23;151.18;;;46.03;;
23539;SDS011;11947;50.810;4.394;2023-01-25T17:19:52;148.35;;;45.25;;
23539;SDS011;11947;50.810;4.394;2023-01-25T17:22:18;152.45;;;45.97;;
23539;SDS011;11947;50.810;4.394;2023-01-25T17:24:43;160.23;;;48.03;;
23539;SDS011;11947;50.810;4.394;2023-01-25T17:27:09;155.13;;;46.10;;
23539;SDS011;11947;50.810;4.394;2023-01-25T17:29:34;180.32;;;53.00;;
23539;SDS011;11947;50.810;4.394;2023-01-25T17:32:00;163.05;;;48.40;;
23539;SDS011;11947;50.810;4.394;2023-01-25T17:34:26;162.93;;;49.28;;
23539;SDS011;11947;50.810;4.394;2023-01-25T17:36:51;162.52;;;48.88;;
23539;SDS011;11947;50.810;4.394;2023-01-25T17:39:17;180.25;;;50.10;;
23539;SDS011;11947;50.810;4.394;2023-01-25T17:41:44;173.93;;;51.60;;
23539;SDS011;11947;50.810;4.394;2023-01-25T17:44:12;181.05;;;54.08;;
23539;SDS011;11947;50.810;4.394;2023-01-25T17:46:41;178.02;;;55.08;;
23539;SDS011;11947;50.810;4.394;2023-01-25T17:49:09;156.38;;;47.95;;
23539;SDS011;11947;50.810;4.394;2023-01-25T17:51:36;167.13;;;47.88;;
23539;SDS011;11947;50.810;4.394;2023-01-25T17:54:02;189.75;;;60.40;;
23539;SDS011;11947;50.810;4.394;2023-01-25T17:56:29;167.93;;;48.28;;
23539;SDS011;11947;50.810;4.394;2023-01-25T17:58:55;199.38;;;62.22;;
23539;SDS011;11947;50.810;4.394;2023-01-25T18:01:23;164.02;;;48.60;;
23539;SDS011;11947;50.810;4.394;2023-01-25T18:03:54;161.70;;;50.45;;
23539;SDS011;11947;50.810;4.394;2023-01-25T18:06:21;169.38;;;51.10;;
23539;SDS011;11947;50.810;4.394;2023-01-25T18:08:52;162.23;;;47.25;;
23539;SDS011;11947;50.810;4.394;2023-01-25T18:11:21;179.10;;;53.80;;
23539;SDS011;11947;50.810;4.394;2023-01-25T18:13:55;170.73;;;50.00;;
23539;SDS011;11947;50.810;4.394;2023-01-25T18:16:23;157.37;;;46.53;;
23539;SDS011;11947;50.810;4.394;2023-01-25T18:18:51;166.05;;;48.08;;
23539;SDS011;11947;50.810;4.394;2023-01-25T18:21:25;176.25;;;51.30;;
23539;SDS011;11947;50.810;4.394;2023-01-25T18:23:56;189.40;;;52.05;;
23539;SDS011;11947;50.810;4.394;2023-01-25T18:26:26;163.68;;;48.58;;
23539;SDS011;11947;50.810;4.394;2023-01-25T18:28:53;155.95;;;45.85;;
23539;SDS011;11947;50.810;4.394;2023-01-25T18:31:22;158.50;;;45.55;;
23539;SDS011;11947;50.810;4.394;2023-01-25T18:33:48;159.30;;;45.15;;
23539;SDS011;11947;50.810;4.394;2023-01-25T18:36:14;169.68;;;50.85;;
23539;SDS011;11947;50.810;4.394;2023-01-25T18:38:41;199.80;;;58.72;;
23539;SDS011;11947;50.810;4.394;2023-01-25T18:41:07;177.70;;;52.17;;
23539;SDS011;11947;50.810;4.394;2023-01-25T18:43:33;153.02;;;46.17;;
23539;SDS011;11947;50.810;4.394;2023-01-25T18:46:01;171.13;;;46.80;;
23539;SDS011;11947;50.810;4.394;2023-01-25T18:48:28;177.77;;;47.38;;
23539;SDS011;11947;50.810;4.394;2023-01-25T18:50:57;158.50;;;45.30;;
23539;SDS011;11947;50.810;4.394;2023-01-25T18:53:45;163.27;;;46.53;;
23539;SDS011;11947;50.810;4.394;2023-01-25T18:56:15;159.40;;;46.08;;
23539;SDS011;11947;50.810;4.394;2023-01-25T18:58:43;172.77;;;45.10;;
23539;SDS011;11947;50.810;4.394;2023-01-25T19:01:13;156.25;;;45.38;;
23539;SDS011;11947;50.810;4.394;2023-01-25T19:03:41;162.30;;;45.25;;
23539;SDS011;11947;50.810;4.394;2023-01-25T19:06:07;172.52;;;43.92;;
23539;SDS011;11947;50.810;4.394;2023-01-25T19:08:34;263.40;;;78.53;;
23539;SDS011;11947;50.810;4.394;2023-01-25T19:11:05;161.50;;;44.30;;
23539;SDS011;11947;50.810;4.394;2023-01-25T19:13:34;155.27;;;43.22;;
23539;SDS011;11947;50.810;4.394;2023-01-25T19:16:09;164.13;;;45.00;;
23539;SDS011;11947;50.810;4.394;2023-01-25T19:18:38;163.82;;;44.58;;
23539;SDS011;11947;50.810;4.394;2023-01-25T19:21:08;162.95;;;45.00;;
23539;SDS011;11947;50.810;4.394;2023-01-25T19:23:35;199.32;;;52.90;;
23539;SDS011;11947;50.810;4.394;2023-01-25T19:26:02;181.52;;;49.85;;
23539;SDS011;11947;50.810;4.394;2023-01-25T19:28:29;166.02;;;44.40;;
23539;SDS011;11947;50.810;4.394;2023-01-25T19:30:55;161.07;;;42.88;;
23539;SDS011;11947;50.810;4.394;2023-01-25T19:33:20;166.15;;;44.67;;
23539;SDS011;11947;50.810;4.394;2023-01-25T19:35:46;162.63;;;43.22;;
23539;SDS011;11947;50.810;4.394;2023-01-25T19:38:12;163.00;;;44.85;;
23539;SDS011;11947;50.810;4.394;2023-01-25T19:40:37;160.05;;;44.53;;
23539;SDS011;11947;50.810;4.394;2023-01-25T19:43:03;169.73;;;44.92;;
23539;SDS011;11947;50.810;4.394;2023-01-25T19:45:29;162.10;;;44.83;;
23539;SDS011;11947;50.810;4.394;2023-01-25T19:47:55;164.93;;;44.88;;
23539;SDS011;11947;50.810;4.394;2023-01-25T19:50:21;163.23;;;44.00;;
23539;SDS011;11947;50.810;4.394;2023-01-25T19:52:50;166.63;;;43.28;;
23539;SDS011;11947;50.810;4.394;2023-01-25T19:55:15;166.80;;;43.78;;
23539;SDS011;11947;50.810;4.394;2023-01-25T19:57:41;163.07;;;42.28;;
23539;SDS011;11947;50.810;4.394;2023-01-25T20:00:07;168.85;;;46.30;;
23539;SDS011;11947;50.810;4.394;2023-01-25T20:02:33;172.95;;;46.22;;
23539;SDS011;11947;50.810;4.394;2023-01-25T20:04:59;163.85;;;44.28;;
23539;SDS011;11947;50.810;4.394;2023-01-25T20:07:25;172.98;;;43.55;;
23539;SDS011;11947;50.810;4.394;2023-01-25T20:09:52;164.05;;;45.38;;
23539;SDS011;11947;50.810;4.394;2023-01-25T20:12:20;174.52;;;46.25;;
23539;SDS011;11947;50.810;4.394;2023-01-25T20:14:46;205.80;;;46.97;;
23539;SDS011;11947;50.810;4.394;2023-01-25T20:17:12;169.85;;;45.33;;
23539;SDS011;11947;50.810;4.394;2023-01-25T20:19:38;169.73;;;44.42;;
23539;SDS011;11947;50.810;4.394;2023-01-25T20:22:05;171.18;;;46.50;;
23539;SDS011;11947;50.810;4.394;2023-01-25T20:24:30;181.38;;;44.22;;
23539;SDS011;11947;50.810;4.394;2023-01-25T20:26:56;174.05;;;44.63;;
23539;SDS011;11947;50.810;4.394;2023-01-25T20:29:24;174.35;;;43.58;;
23539;SDS011;11947;50.810;4.394;2023-01-25T20:31:52;170.88;;;43.20;;
23539;SDS011;11947;50.810;4.394;2023-01-25T20:34:18;179.15;;;45.30;;
23539;SDS011;11947;50.810;4.394;2023-01-25T20:36:47;185.02;;;45.05;;
23539;SDS011;11947;50.810;4.394;2023-01-25T20:39:18;187.65;;;44.38;;
23539;SDS011;11947;50.810;4.394;2023-01-25T20:41:44;194.00;;;45.15;;
23539;SDS011;11947;50.810;4.394;2023-01-25T20:44:11;182.05;;;44.85;;
23539;SDS011;11947;50.810;4.394;2023-01-25T20:46:40;183.95;;;44.13;;
23539;SDS011;11947;50.810;4.394;2023-01-25T20:49:07;194.20;;;44.88;;
23539;SDS011;11947;50.810;4.394;2023-01-25T20:51:40;189.10;;;44.42;;
23539;SDS011;11947;50.810;4.394;2023-01-25T20:54:09;198.18;;;45.90;;
23539;SDS011;11947;50.810;4.394;2023-01-25T20:56:35;196.95;;;46.72;;
23539;SDS011;11947;50.810;4.394;2023-01-25T20:59:01;181.60;;;44.72;;
23539;SDS011;11947;50.810;4.394;2023-01-25T21:01:29;198.82;;;44.72;;
23539;SDS011;11947;50.810;4.394;2023-01-25T21:03:57;203.07;;;47.50;;
23539;SDS011;11947;50.810;4.394;2023-01-25T21:06:24;195.77;;;43.58;;
23539;SDS011;11947;50.810;4.394;2023-01-25T21:08:51;188.43;;;41.75;;
23539;SDS011;11947;50.810;4.394;2023-01-25T21:11:17;206.48;;;45.42;;
23539;SDS011;11947;50.810;4.394;2023-01-25T21:13:43;195.13;;;43.75;;
23539;SDS011;11947;50.810;4.394;2023-01-25T21:16:10;203.10;;;44.35;;
23539;SDS011;11947;50.810;4.394;2023-01-25T21:18:46;199.93;;;44.70;;
23539;SDS011;11947;50.810;4.394;2023-01-25T21:21:17;204.35;;;44.95;;
23539;SDS011;11947;50.810;4.394;2023-01-25T21:23:48;196.50;;;45.35;;
23539;SDS011;11947;50.810;4.394;2023-01-25T21:26:24;201.68;;;43.17;;
23539;SDS011;11947;50.810;4.394;2023-01-25T21:28:52;183.45;;;42.63;;
23539;SDS011;11947;50.810;4.394;2023-01-25T21:31:23;180.55;;;41.30;;
23539;SDS011;11947;50.810;4.394;2023-01-25T21:33:50;210.07;;;44.65;;
23539;SDS011;11947;50.810;4.394;2023-01-25T21:36:17;189.07;;;44.70;;
23539;SDS011;11947;50.810;4.394;2023-01-25T21:38:46;199.77;;;47.05;;
23539;SDS011;11947;50.810;4.394;2023-01-25T21:41:14;191.70;;;43.70;;
23539;SDS011;11947;50.810;4.394;2023-01-25T21:43:41;180.25;;;41.80;;
23539;SDS011;11947;50.810;4.394;2023-01-25T21:46:26;185.18;;;42.50;;
23539;SDS011;11947;50.810;4.394;2023-01-25T21:51:36;186.57;;;41.03;;
23539;SDS011;11947;50.810;4.394;2023-01-25T21:54:11;187.60;;;40.47;;
23539;SDS011;11947;50.810;4.394;2023-01-25T21:56:38;174.35;;;41.13;;
23539;SDS011;11947;50.810;4.394;2023-01-25T21:59:03;161.88;;;38.63;;
23539;SDS011;11947;50.810;4.394;2023-01-25T22:01:29;169.75;;;38.28;;
23539;SDS011;11947;50.810;4.394;2023-01-25T22:03:54;186.73;;;41.17;;
23539;SDS011;11947;50.810;4.394;2023-01-25T22:06:20;185.93;;;40.00;;
23539;SDS011;11947;50.810;4.394;2023-01-25T22:08:46;194.15;;;40.20;;
23539;SDS011;11947;50.810;4.394;2023-01-25T22:11:12;179.68;;;39.35;;
23539;SDS011;11947;50.810;4.394;2023-01-25T22:13:38;192.68;;;41.28;;
23539;SDS011;11947;50.810;4.394;2023-01-25T22:16:06;189.00;;;41.20;;
23539;SDS011;11947;50.810;4.394;2023-01-25T22:18:35;196.75;;;40.67;;
23539;SDS011;11947;50.810;4.394;2023-01-25T22:21:03;191.32;;;41.00;;
23539;SDS011;11947;50.810;4.394;2023-01-25T22:23:32;179.68;;;38.72;;
23539;SDS011;11947;50.810;4.394;2023-01-25T22:26:02;174.05;;;39.13;;
23539;SDS011;11947;50.810;4.394;2023-01-25T22:28:30;190.60;;;41.08;;
23539;SDS011;11947;50.810;4.394;2023-01-25T22:30:59;174.00;;;39.72;;
23539;SDS011;11947;50.810;4.394;2023-01-25T22:33:24;198.00;;;40.53;;
23539;SDS011;11947;50.810;4.394;2023-01-25T22:35:50;191.88;;;40.97;;
23539;SDS011;11947;50.810;4.394;2023-01-25T22:38:15;186.00;;;40.00;;
23539;SDS011;11947;50.810;4.394;2023-01-25T22:40:41;194.65;;;40.80;;
23539;SDS011;11947;50.810;4.394;2023-01-25T22:43:07;203.80;;;40.58;;
23539;SDS011;11947;50.810;4.394;2023-01-25T22:45:32;183.68;;;40.45;;
23539;SDS011;11947;50.810;4.394;2023-01-25T22:47:58;185.50;;;40.03;;
23539;SDS011;11947;50.810;4.394;2023-01-25T22:50:23;199.50;;;40.13;;
23539;SDS011;11947;50.810;4.394;2023-01-25T22:52:50;195.32;;;37.40;;
23539;SDS011;11947;50.810;4.394;2023-01-25T22:55:16;195.05;;;39.28;;
23539;SDS011;11947;50.810;4.394;2023-01-25T22:57:42;200.40;;;40.90;;
23539;SDS011;11947;50.810;4.394;2023-01-25T23:00:08;188.38;;;38.60;;
23539;SDS011;11947;50.810;4.394;2023-01-25T23:02:34;190.15;;;40.03;;
23539;SDS011;11947;50.810;4.394;2023-01-25T23:04:59;194.43;;;39.65;;
23539;SDS011;11947;50.810;4.394;2023-01-25T23:07:25;199.10;;;39.55;;
23539;SDS011;11947;50.810;4.394;2023-01-25T23:09:50;170.27;;;36.42;;
23539;SDS011;11947;50.810;4.394;2023-01-25T23:12:17;189.80;;;37.67;;
23539;SDS011;11947;50.810;4.394;2023-01-25T23:14:42;188.80;;;38.58;;
23539;SDS011;11947;50.810;4.394;2023-01-25T23:17:24;190.60;;;39.28;;
23539;SDS011;11947;50.810;4.394;2023-01-25T23:20:09;210.45;;;38.42;;
23539;SDS011;11947;50.810;4.394;2023-01-25T23:22:36;182.35;;;36.75;;
23539;SDS011;11947;50.810;4.394;2023-01-25T23:25:02;181.32;;;37.65;;
23539;SDS011;11947;50.810;4.394;2023-01-25T23:27:29;171.18;;;36.70;;
23539;SDS011;11947;50.810;4.394;2023-01-25T23:29:56;172.15;;;36.95;;
23539;SDS011;11947;50.810;4.394;2023-01-25T23:32:21;182.68;;;38.33;;
23539;SDS011;11947;50.810;4.394;2023-01-25T23:34:47;180.60;;;38.50;;
23539;SDS011;11947;50.810;4.394;2023-01-25T23:37:17;172.70;;;34.70;;
23539;SDS011;11947;50.810;4.394;2023-01-25T23:39:44;173.85;;;35.13;;
23539;SDS011;11947;50.810;4.394;2023-01-25T23:42:10;170.88;;;36.30;;
23539;SDS011;11947;50.810;4.394;2023-01-25T23:44:36;163.95;;;36.65;;
23539;SDS011;11947;50.810;4.394;2023-01-25T23:47:02;174.65;;;36.95;;
23539;SDS011;11947;50.810;4.394;2023-01-25T23:49:27;177.82;;;35.58;;
23539;SDS011;11947;50.810;4.394;2023-01-25T23:51:53;172.90;;;35.65;;
23539;SDS011;11947;50.810;4.394;2023-01-25T23:54:19;222.25;;;36.28;;
23539;SDS011;11947;50.810;4.394;2023-01-25T23:56:45;169.43;;;35.72;;
23539;SDS011;11947;50.810;4.394;2023-01-25T23:59:10;180.50;;;37.30;;
